sensor_id;sensor_type;location;lat;lon;timestamp;pressure;altitude;pressure_sealevel;temperature;humidity
38558;BME280;24333;42.626;23.308;2023-01-28T00:00:30;91519.31;;;-2.41;100.00
38558;BME280;24333;42.626;23.308;2023-01-28T00:02:56;91524.50;;;-2.36;100.00
38558;BME280;24333;42.626;23.308;2023-01-28T00:05:21;91529.06;;;-2.36;100.00
38558;BME280;24333;42.626;23.308;2023-01-28T00:07:51;91515.25;;;-2.38;100.00
38558;BME280;24333;42.626;23.308;2023-01-28T00:10:16;91523.09;;;-2.42;100.00
38558;BME280;24333;42.626;23.308;2023-01-28T00:12:43;91523.72;;;-2.45;100.00
38558;BME280;24333;42.626;23.308;2023-01-28T00:15:10;91547.91;;;-2.33;100.00
38558;BME280;24333;42.626;23.308;2023-01-28T00:17:36;91547.00;;;-2.28;100.00
38558;BME280;24333;42.626;23.308;2023-01-28T00:20:03;91535.34;;;-2.41;100.00
38558;BME280;24333;42.626;23.308;2023-01-28T00:22:30;91542.28;;;-2.31;100.00
38558;BME280;24333;42.626;23.308;2023-01-28T00:24:56;91540.69;;;-2.41;100.00
38558;BME280;24333;42.626;23.308;2023-01-28T00:27:22;91564.75;;;-2.23;100.00
38558;BME280;24333;42.626;23.308;2023-01-28T00:29:47;91543.19;;;-2.36;100.00
38558;BME280;24333;42.626;23.308;2023-01-28T00:32:13;91553.13;;;-2.27;100.00
38558;BME280;24333;42.626;23.308;2023-01-28T00:34:38;91550.72;;;-2.38;100.00
38558;BME280;24333;42.626;23.308;2023-01-28T00:37:04;91554.06;;;-2.32;100.00
38558;BME280;24333;42.626;23.308;2023-01-28T00:39:30;91558.31;;;-2.22;100.00
38558;BME280;24333;42.626;23.308;2023-01-28T00:41:56;91566.00;;;-2.21;100.00
38558;BME280;24333;42.626;23.308;2023-01-28T00:44:21;91567.59;;;-2.28;100.00
38558;BME280;24333;42.626;23.308;2023-01-28T00:46:47;91563.34;;;-2.21;100.00
38558;BME280;24333;42.626;23.308;2023-01-28T00:49:12;91567.25;;;-2.27;100.00
38558;BME280;24333;42.626;23.308;2023-01-28T00:51:38;91570.44;;;-2.16;100.00
38558;BME280;24333;42.626;23.308;2023-01-28T00:54:04;91574.22;;;-2.08;100.00
38558;BME280;24333;42.626;23.308;2023-01-28T00:56:29;91556.75;;;-2.14;100.00
38558;BME280;24333;42.626;23.308;2023-01-28T00:58:56;91568.09;;;-2.09;100.00
38558;BME280;24333;42.626;23.308;2023-01-28T01:01:23;91581.91;;;-2.07;100.00
38558;BME280;24333;42.626;23.308;2023-01-28T01:03:50;91577.03;;;-2.05;100.00
38558;BME280;24333;42.626;23.308;2023-01-28T01:06:23;91577.84;;;-2.04;100.00
38558;BME280;24333;42.626;23.308;2023-01-28T01:08:49;91557.53;;;-2.14;100.00
38558;BME280;24333;42.626;23.308;2023-01-28T01:11:16;91570.72;;;-2.18;100.00
38558;BME280;24333;42.626;23.308;2023-01-28T01:13:42;91547.78;;;-2.27;100.00
38558;BME280;24333;42.626;23.308;2023-01-28T01:16:13;91572.63;;;-2.18;100.00
38558;BME280;24333;42.626;23.308;2023-01-28T01:18:41;91574.03;;;-2.29;100.00
38558;BME280;24333;42.626;23.308;2023-01-28T01:21:09;91565.50;;;-2.32;100.00
38558;BME280;24333;42.626;23.308;2023-01-28T01:23:35;91577.44;;;-2.38;100.00
38558;BME280;24333;42.626;23.308;2023-01-28T01:26:00;91573.34;;;-2.44;100.00
38558;BME280;24333;42.626;23.308;2023-01-28T01:28:27;91579.03;;;-2.28;100.00
38558;BME280;24333;42.626;23.308;2023-01-28T01:31:07;91570.53;;;-2.39;100.00
38558;BME280;24333;42.626;23.308;2023-01-28T01:33:33;91579.38;;;-2.29;100.00
38558;BME280;24333;42.626;23.308;2023-01-28T01:35:59;91573.19;;;-2.39;100.00
38558;BME280;24333;42.626;23.308;2023-01-28T01:38:26;91575.41;;;-2.32;100.00
38558;BME280;24333;42.626;23.308;2023-01-28T01:40:54;91582.97;;;-2.16;100.00
38558;BME280;24333;42.626;23.308;2023-01-28T01:43:21;91582.06;;;-2.12;100.00
38558;BME280;24333;42.626;23.308;2023-01-28T01:45:52;91570.59;;;-2.21;100.00
38558;BME280;24333;42.626;23.308;2023-01-28T01:48:30;91580.66;;;-2.18;100.00
38558;BME280;24333;42.626;23.308;2023-01-28T01:51:00;91568.69;;;-2.29;100.00
38558;BME280;24333;42.626;23.308;2023-01-28T01:53:27;91576.53;;;-2.24;100.00
38558;BME280;24333;42.626;23.308;2023-01-28T01:55:57;91561.63;;;-2.25;100.00
38558;BME280;24333;42.626;23.308;2023-01-28T01:58:29;91555.31;;;-2.38;100.00
38558;BME280;24333;42.626;23.308;2023-01-28T02:00:56;91583.00;;;-2.25;100.00
38558;BME280;24333;42.626;23.308;2023-01-28T02:03:32;91581.22;;;-2.30;100.00
38558;BME280;24333;42.626;23.308;2023-01-28T02:06:02;91588.44;;;-2.30;100.00
38558;BME280;24333;42.626;23.308;2023-01-28T02:08:31;91567.84;;;-2.39;100.00
38558;BME280;24333;42.626;23.308;2023-01-28T02:11:01;91601.53;;;-2.20;100.00
38558;BME280;24333;42.626;23.308;2023-01-28T02:13:40;91583.72;;;-2.34;100.00
38558;BME280;24333;42.626;23.308;2023-01-28T02:16:07;91576.16;;;-2.49;100.00
38558;BME280;24333;42.626;23.308;2023-01-28T02:18:33;91593.13;;;-2.45;100.00
38558;BME280;24333;42.626;23.308;2023-01-28T03:07:37;91599.41;;;-2.41;100.00
38558;BME280;24333;42.626;23.308;2023-01-28T03:10:35;91596.28;;;-2.43;100.00
38558;BME280;24333;42.626;23.308;2023-01-28T03:13:52;91583.50;;;-2.64;100.00
38558;BME280;24333;42.626;23.308;2023-01-28T03:16:37;91594.50;;;-2.56;100.00
38558;BME280;24333;42.626;23.308;2023-01-28T03:19:22;91595.13;;;-2.59;100.00
38558;BME280;24333;42.626;23.308;2023-01-28T03:22:20;91616.25;;;-2.40;100.00
38558;BME280;24333;42.626;23.308;2023-01-28T03:25:14;91616.41;;;-2.37;100.00
38558;BME280;24333;42.626;23.308;2023-01-28T03:28:23;91589.47;;;-2.58;100.00
38558;BME280;24333;42.626;23.308;2023-01-28T03:31:55;91595.84;;;-2.36;100.00
38558;BME280;24333;42.626;23.308;2023-01-28T03:35:10;91586.03;;;-2.50;100.00
38558;BME280;24333;42.626;23.308;2023-01-28T03:38:25;91599.38;;;-2.50;100.00
38558;BME280;24333;42.626;23.308;2023-01-28T03:41:09;91582.56;;;-2.59;100.00
38558;BME280;24333;42.626;23.308;2023-01-28T03:44:03;91590.88;;;-2.60;100.00
38558;BME280;24333;42.626;23.308;2023-01-28T03:47:06;91603.28;;;-2.56;100.00
38558;BME280;24333;42.626;23.308;2023-01-28T03:50:00;91614.00;;;-2.47;100.00
38558;BME280;24333;42.626;23.308;2023-01-28T03:52:44;91592.09;;;-2.67;100.00
38558;BME280;24333;42.626;23.308;2023-01-28T03:55:21;91595.88;;;-2.68;100.00
38558;BME280;24333;42.626;23.308;2023-01-28T03:58:14;91599.34;;;-2.67;100.00
38558;BME280;24333;42.626;23.308;2023-01-28T04:01:28;91597.56;;;-2.72;100.00
38558;BME280;24333;42.626;23.308;2023-01-28T04:04:31;91594.75;;;-2.67;100.00
38558;BME280;24333;42.626;23.308;2023-01-28T04:07:23;91606.44;;;-2.63;100.00
38558;BME280;24333;42.626;23.308;2023-01-28T04:10:10;91598.25;;;-2.66;100.00
38558;BME280;24333;42.626;23.308;2023-01-28T04:12:43;91614.91;;;-2.60;100.00
38558;BME280;24333;42.626;23.308;2023-01-28T04:15:13;91605.50;;;-2.58;100.00
38558;BME280;24333;42.626;23.308;2023-01-28T04:18:18;91617.69;;;-2.66;100.00
38558;BME280;24333;42.626;23.308;2023-01-28T12:41:21;91867.34;;;-0.96;100.00
38558;BME280;24333;42.626;23.308;2023-01-28T12:44:48;91838.50;;;-1.08;100.00
38558;BME280;24333;42.626;23.308;2023-01-28T13:38:24;91925.41;;;-0.39;100.00
38558;BME280;24333;42.626;23.308;2023-01-28T13:40:58;91929.03;;;-0.35;100.00
38558;BME280;24333;42.626;23.308;2023-01-28T13:46:04;91922.22;;;-0.59;100.00
38558;BME280;24333;42.626;23.308;2023-01-28T13:50:56;91935.13;;;-0.69;100.00
38558;BME280;24333;42.626;23.308;2023-01-28T13:58:58;91932.31;;;-0.64;100.00
38558;BME280;24333;42.626;23.308;2023-01-28T14:04:46;91928.09;;;-0.97;100.00
38558;BME280;24333;42.626;23.308;2023-01-28T14:10:02;91921.66;;;-0.96;100.00
38558;BME280;24333;42.626;23.308;2023-01-28T14:18:25;91954.88;;;-0.97;100.00
38558;BME280;24333;42.626;23.308;2023-01-28T14:20:55;91939.06;;;-1.16;100.00
38558;BME280;24333;42.626;23.308;2023-01-28T14:23:30;91945.69;;;-1.13;100.00
38558;BME280;24333;42.626;23.308;2023-01-28T14:26:15;91961.09;;;-1.19;100.00
38558;BME280;24333;42.626;23.308;2023-01-28T14:29:03;91967.34;;;-1.24;100.00
38558;BME280;24333;42.626;23.308;2023-01-28T14:31:36;91949.81;;;-1.39;100.00
38558;BME280;24333;42.626;23.308;2023-01-28T14:34:44;91957.66;;;-1.42;100.00
38558;BME280;24333;42.626;23.308;2023-01-28T14:37:19;91950.53;;;-1.56;100.00
38558;BME280;24333;42.626;23.308;2023-01-28T14:39:57;91954.50;;;-1.44;100.00
38558;BME280;24333;42.626;23.308;2023-01-28T14:42:38;91948.53;;;-1.41;100.00
38558;BME280;24333;42.626;23.308;2023-01-28T14:59:50;91965.09;;;-1.62;100.00
38558;BME280;24333;42.626;23.308;2023-01-28T15:02:29;91988.97;;;-1.43;100.00
38558;BME280;24333;42.626;23.308;2023-01-28T15:05:10;91983.50;;;-1.61;100.00
38558;BME280;24333;42.626;23.308;2023-01-28T15:38:38;91986.34;;;-2.25;100.00
38558;BME280;24333;42.626;23.308;2023-01-28T15:41:07;91983.34;;;-2.24;100.00
38558;BME280;24333;42.626;23.308;2023-01-28T15:43:37;91994.03;;;-2.24;100.00
38558;BME280;24333;42.626;23.308;2023-01-28T15:46:10;91992.56;;;-2.30;100.00
38558;BME280;24333;42.626;23.308;2023-01-28T15:48:44;91994.41;;;-2.16;100.00
38558;BME280;24333;42.626;23.308;2023-01-28T15:51:22;91984.75;;;-2.26;100.00
38558;BME280;24333;42.626;23.308;2023-01-28T15:53:52;92006.88;;;-2.12;100.00
38558;BME280;24333;42.626;23.308;2023-01-28T15:56:26;92018.13;;;-2.01;100.00
38558;BME280;24333;42.626;23.308;2023-01-28T15:58:53;92002.69;;;-2.04;100.00
38558;BME280;24333;42.626;23.308;2023-01-28T16:01:22;92003.84;;;-1.96;100.00
38558;BME280;24333;42.626;23.308;2023-01-28T16:04:03;92028.16;;;-1.84;100.00
38558;BME280;24333;42.626;23.308;2023-01-28T16:06:41;92015.94;;;-1.99;100.00
38558;BME280;24333;42.626;23.308;2023-01-28T16:19:40;92023.75;;;-2.03;100.00
38558;BME280;24333;42.626;23.308;2023-01-28T16:22:24;92030.75;;;-1.93;100.00
38558;BME280;24333;42.626;23.308;2023-01-28T16:24:54;92030.47;;;-1.91;100.00
38558;BME280;24333;42.626;23.308;2023-01-28T16:27:27;92043.84;;;-1.91;100.00
38558;BME280;24333;42.626;23.308;2023-01-28T16:29:57;92059.66;;;-1.81;100.00
38558;BME280;24333;42.626;23.308;2023-01-28T16:32:35;92042.47;;;-2.03;100.00
38558;BME280;24333;42.626;23.308;2023-01-28T16:35:23;92038.41;;;-2.00;100.00
38558;BME280;24333;42.626;23.308;2023-01-28T16:37:53;92045.03;;;-1.97;100.00
38558;BME280;24333;42.626;23.308;2023-01-28T16:40:22;92055.50;;;-1.87;100.00
38558;BME280;24333;42.626;23.308;2023-01-28T16:42:57;92045.09;;;-1.89;100.00
38558;BME280;24333;42.626;23.308;2023-01-28T16:45:29;92046.88;;;-1.84;100.00
38558;BME280;24333;42.626;23.308;2023-01-28T16:47:55;92054.66;;;-1.73;100.00
38558;BME280;24333;42.626;23.308;2023-01-28T20:44:35;92159.44;;;-2.13;100.00
38558;BME280;24333;42.626;23.308;2023-01-28T20:51:10;92170.84;;;-2.08;100.00
38558;BME280;24333;42.626;23.308;2023-01-28T20:54:28;92184.69;;;-2.06;100.00
38558;BME280;24333;42.626;23.308;2023-01-28T22:39:56;92224.25;;;-2.36;100.00
